Time;durP1;ratioP1;P1;durP2;ratioP2;P2;SDS_P1;SDS_P2;PMS_P1;PMS_P2;Temp;Humidity;BMP_temperature;BMP_pressure;BME280_temperature;BME280_humidity;BME280_pressure;Samples;Min_cycle;Max_cycle;Signal;HPM_P1;HPM_P2
2022/10/19 00:01:00;;;;;;;14.13;3.67;;;13.20;1.00;;;;;;6315919;22;20433;-77
2022/10/19 00:03:29;;;;;;;8.50;3.40;;;13.20;1.00;;;;;;6314083;22;20407;-76
2022/10/19 00:05:57;;;;;;;9.60;3.27;;;13.20;1.00;;;;;;6314953;22;20414;-76
2022/10/19 00:08:24;;;;;;;13.87;3.33;;;13.10;1.00;;;;;;6301049;22;20483;-77
2022/10/19 00:10:51;;;;;;;8.27;2.70;;;13.10;1.00;;;;;;6313750;22;21140;-76
2022/10/19 00:13:19;;;;;;;8.83;3.50;;;13.10;1.00;;;;;;6315544;22;20422;-77
2022/10/19 00:15:46;;;;;;;9.33;3.00;;;13.10;1.00;;;;;;6314903;22;20417;-76
2022/10/19 00:18:12;;;;;;;12.17;3.30;;;13.10;1.00;;;;;;6314640;22;20425;-79
2022/10/19 00:20:40;;;;;;;8.77;2.60;;;13.10;1.00;;;;;;6315017;22;20430;-77
2022/10/19 00:23:07;;;;;;;11.90;3.23;;;13.10;1.00;;;;;;6314024;22;20426;-76
2022/10/19 00:25:35;;;;;;;8.90;2.77;;;13.10;1.00;;;;;;6316053;22;20418;-76
2022/10/19 00:28:06;;;;;;;9.50;3.27;;;13.10;1.00;;;;;;6314844;22;21306;-77
2022/10/19 00:30:38;;;;;;;8.30;2.77;;;13.10;1.00;;;;;;6299281;22;20446;-76
2022/10/19 00:33:06;;;;;;;10.13;3.10;;;13.10;1.00;;;;;;6313186;22;20424;-77
2022/10/19 00:35:33;;;;;;;10.00;3.43;;;13.10;1.00;;;;;;6316109;22;20437;-76
2022/10/19 00:38:01;;;;;;;10.70;3.00;;;13.10;1.00;;;;;;6288323;22;20425;-77
2022/10/19 00:40:30;;;;;;;10.40;3.10;;;13.10;1.00;;;;;;6316452;22;20423;-76
2022/10/19 00:42:56;;;;;;;11.00;2.67;;;13.10;1.00;;;;;;6314708;22;20426;-76
2022/10/19 00:45:23;;;;;;;7.10;2.20;;;13.10;1.00;;;;;;6315031;22;20414;-78
2022/10/19 00:47:51;;;;;;;10.70;2.90;;;13.10;1.00;;;;;;6313238;22;20548;-77
2022/10/19 00:50:19;;;;;;;8.53;2.30;;;13.20;1.00;;;;;;6313692;22;20418;-77
2022/10/19 00:52:47;;;;;;;7.60;2.60;;;13.20;1.00;;;;;;6298673;22;20473;-79
2022/10/19 00:55:17;;;;;;;12.07;2.70;;;13.20;1.00;;;;;;6313358;22;20410;-77
2022/10/19 00:57:44;;;;;;;9.10;2.67;;;13.20;1.00;;;;;;6315095;22;20390;-78
2022/10/19 01:00:11;;;;;;;7.37;2.40;;;13.30;1.00;;;;;;6315841;22;20390;-78
2022/10/19 01:05:14;;;;;;;8.37;2.67;;;13.30;1.00;;;;;;6256429;22;20431;-81
2022/10/19 01:07:41;;;;;;;11.87;2.70;;;13.30;1.00;;;;;;6266420;22;20417;-81
2022/10/19 01:10:09;;;;;;;8.40;2.90;;;13.30;1.00;;;;;;6284660;22;20511;-80
2022/10/19 01:13:09;;;;;;;10.33;2.63;;;13.30;1.00;;;;;;6285931;22;21015;-80
2022/10/19 01:15:57;;;;;;;9.00;2.50;;;13.20;1.00;;;;;;6295231;22;20450;-80
2022/10/19 01:18:31;;;;;;;7.90;2.23;;;13.10;1.00;;;;;;6290795;22;20446;-80
2022/10/19 01:21:22;;;;;;;12.27;2.60;;;13.10;1.00;;;;;;6245677;22;20415;-80
2022/10/19 01:24:17;;;;;;;8.20;2.57;;;13.10;1.00;;;;;;6277218;22;20403;-79
2022/10/19 01:27:08;;;;;;;8.07;2.37;;;13.20;1.00;;;;;;6283963;22;20419;-80
2022/10/19 01:30:02;;;;;;;10.10;2.17;;;13.20;1.00;;;;;;6260271;22;20419;-80
2022/10/19 01:32:40;;;;;;;8.40;1.80;;;13.20;1.00;;;;;;6286162;22;20415;-78
2022/10/19 01:35:12;;;;;;;8.27;2.27;;;13.20;1.00;;;;;;6282776;22;20519;-77
2022/10/19 01:37:56;;;;;;;7.93;2.13;;;13.10;1.00;;;;;;6289826;22;20490;-80
2022/10/19 01:40:36;;;;;;;7.40;2.57;;;13.10;1.00;;;;;;6292163;22;20415;-77
2022/10/19 01:43:12;;;;;;;9.47;2.37;;;13.10;1.00;;;;;;6293683;22;20407;-77
2022/10/19 01:45:49;;;;;;;9.77;1.90;;;13.10;1.00;;;;;;6294578;22;20406;-78
2022/10/19 01:48:22;;;;;;;8.03;1.90;;;13.10;1.00;;;;;;6290407;22;20965;-78
2022/10/19 01:51:06;;;;;;;8.30;2.10;;;13.00;1.00;;;;;;6295991;22;20395;-81
2022/10/19 01:53:40;;;;;;;6.63;1.50;;;13.00;1.00;;;;;;6292912;22;20426;-81
2022/10/19 01:56:11;;;;;;;9.07;2.17;;;13.00;1.00;;;;;;6293920;22;20418;-82
2022/10/19 01:58:48;;;;;;;7.40;1.80;;;13.10;1.00;;;;;;6291851;22;20411;-81
2022/10/19 02:01:28;;;;;;;9.30;1.63;;;13.10;1.00;;;;;;6292958;22;20471;-77
2022/10/19 02:04:00;;;;;;;7.40;1.87;;;13.10;1.00;;;;;;6291061;22;20382;-76
2022/10/19 02:06:30;;;;;;;10.87;2.20;;;13.10;1.00;;;;;;6291492;22;20421;-77
2022/10/19 02:09:01;;;;;;;10.20;2.40;;;13.10;1.00;;;;;;6281912;22;20407;-77
2022/10/19 02:11:39;;;;;;;7.13;1.90;;;13.20;1.00;;;;;;6295643;22;20406;-80
2022/10/19 02:14:19;;;;;;;8.00;2.07;;;13.20;1.00;;;;;;6294888;22;20423;-76
2022/10/19 02:17:02;;;;;;;7.00;2.33;;;13.20;1.00;;;;;;6294253;22;20402;-77
2022/10/19 02:19:31;;;;;;;7.50;2.07;;;13.20;1.00;;;;;;6294516;22;20378;-79
2022/10/19 02:22:00;;;;;;;9.30;2.03;;;13.20;1.00;;;;;;6296349;22;20387;-76
2022/10/19 02:24:28;;;;;;;9.83;2.50;;;13.20;1.00;;;;;;6294782;22;20437;-76
2022/10/19 02:27:00;;;;;;;7.23;2.40;;;13.30;1.00;;;;;;6292607;22;20446;-77
2022/10/19 02:29:28;;;;;;;6.97;2.50;;;13.20;1.00;;;;;;6293141;22;20455;-81
2022/10/19 02:32:01;;;;;;;7.90;2.10;;;13.20;1.00;;;;;;6294817;22;20471;-77
2022/10/19 02:34:31;;;;;;;9.10;2.60;;;13.20;1.00;;;;;;6293549;22;20502;-77
2022/10/19 02:37:00;;;;;;;9.37;2.10;;;13.20;1.00;;;;;;6293233;22;20435;-78
2022/10/19 02:39:33;;;;;;;7.47;2.70;;;13.20;1.00;;;;;;6294997;22;20407;-78
2022/10/19 02:42:33;;;;;;;;;;;;;;;;;;;;;
2022/10/19 02:45:40;;;;;;;;;;;;;;;;;;;;;
2022/10/19 02:48:33;;;;;;;;;;;;;;;;;;;;;
2022/10/19 02:51:31;;;;;;;7.53;2.60;;;13.00;1.00;;;;;;6155566;22;40101;-81
2022/10/19 02:53:59;;;;;;;11.03;2.83;;;12.90;1.00;;;;;;6293984;22;21297;-81
2022/10/19 02:56:32;;;;;;;11.97;3.23;;;12.90;1.00;;;;;;6292513;22;20375;-81
2022/10/19 02:59:02;;;;;;;9.40;2.17;;;12.90;1.00;;;;;;6296050;22;20467;-80
2022/10/19 03:01:32;;;;;;;7.50;1.77;;;12.90;1.00;;;;;;6294768;22;20391;-77
2022/10/19 03:04:00;;;;;;;11.17;2.50;;;13.00;1.00;;;;;;6248721;22;20423;-78
2022/10/19 03:06:30;;;;;;;10.67;2.37;;;13.00;1.00;;;;;;6264353;22;20443;-81
2022/10/19 03:09:00;;;;;;;10.20;3.03;;;13.00;1.00;;;;;;6264382;22;20411;-82
2022/10/19 03:11:29;;;;;;;8.60;2.67;;;13.00;1.00;;;;;;6261896;22;20416;-81
2022/10/19 03:14:01;;;;;;;8.60;2.60;;;13.00;1.00;;;;;;6265369;22;21231;-80
2022/10/19 03:16:32;;;;;;;15.07;2.80;;;13.00;1.00;;;;;;6263061;22;20384;-81
2022/10/19 03:19:03;;;;;;;8.63;2.13;;;12.90;1.00;;;;;;6263185;22;20410;-81
2022/10/19 03:21:30;;;;;;;7.90;1.80;;;12.80;1.00;;;;;;6265487;22;20412;-80
2022/10/19 03:24:00;;;;;;;13.03;3.20;;;12.80;1.00;;;;;;6262354;22;20797;-81
2022/10/19 03:26:28;;;;;;;7.90;2.50;;;12.80;1.00;;;;;;6261836;22;20396;-81
2022/10/19 03:28:55;;;;;;;7.90;2.07;;;12.80;1.00;;;;;;6262209;22;20400;-80
2022/10/19 03:31:22;;;;;;;9.77;2.00;;;12.70;1.00;;;;;;6261157;22;20452;-81
2022/10/19 03:33:53;;;;;;;10.90;2.20;;;12.70;1.00;;;;;;6262460;22;20406;-80
2022/10/19 03:36:32;;;;;;;9.43;2.40;;;12.70;1.00;;;;;;6263638;22;20492;-79
2022/10/19 03:39:04;;;;;;;9.67;2.13;;;12.60;1.00;;;;;;6261362;22;20407;-77
2022/10/19 03:41:33;;;;;;;10.33;2.33;;;12.60;1.00;;;;;;6262340;22;20434;-76
2022/10/19 03:44:01;;;;;;;8.93;2.23;;;12.60;1.00;;;;;;6264986;22;20392;-76
2022/10/19 03:46:37;;;;;;;12.70;3.00;;;12.70;1.00;;;;;;6263314;22;20472;-76
2022/10/19 03:49:09;;;;;;;8.73;2.20;;;12.70;1.00;;;;;;6261364;22;20438;-77
2022/10/19 03:51:42;;;;;;;7.83;2.00;;;12.60;1.00;;;;;;6263053;22;20384;-80
2022/10/19 03:54:15;;;;;;;7.10;1.70;;;12.60;1.00;;;;;;6261225;22;20396;-80
2022/10/19 03:56:43;;;;;;;7.87;1.70;;;12.60;1.00;;;;;;6266325;22;20400;-79
2022/10/19 03:59:13;;;;;;;9.67;1.93;;;12.60;1.00;;;;;;6262845;22;20437;-80
2022/10/19 04:01:42;;;;;;;7.87;1.77;;;12.60;1.00;;;;;;6262796;22;20422;-79
2022/10/19 04:04:13;;;;;;;6.77;1.70;;;12.60;1.00;;;;;;6276865;22;20395;-79
2022/10/19 04:06:43;;;;;;;7.20;1.60;;;12.70;1.00;;;;;;6265978;22;20398;-81
2022/10/19 04:09:14;;;;;;;9.57;2.10;;;12.70;1.00;;;;;;6291348;22;20395;-78
2022/10/19 04:11:42;;;;;;;6.93;1.87;;;12.70;1.00;;;;;;6291109;22;20451;-77
2022/10/19 04:14:11;;;;;;;8.37;2.00;;;12.60;1.00;;;;;;6292223;22;20415;-78
2022/10/19 04:16:41;;;;;;;8.10;1.73;;;12.70;1.00;;;;;;6293903;22;20402;-78
2022/10/19 04:19:13;;;;;;;7.70;2.20;;;12.60;1.00;;;;;;6291809;22;20466;-77
2022/10/19 04:21:42;;;;;;;7.20;1.70;;;12.60;1.00;;;;;;6293599;22;20394;-79
2022/10/19 04:24:13;;;;;;;6.90;2.17;;;12.60;1.00;;;;;;6291184;22;20424;-77
2022/10/19 04:26:42;;;;;;;8.23;2.07;;;12.60;1.00;;;;;;6292906;22;20388;-78
2022/10/19 04:29:13;;;;;;;8.00;2.00;;;12.60;1.00;;;;;;6288376;22;20494;-77
2022/10/19 04:31:43;;;;;;;9.67;2.80;;;12.60;1.00;;;;;;6292386;22;20387;-81
2022/10/19 04:34:11;;;;;;;7.53;1.60;;;12.70;1.00;;;;;;6289997;22;20462;-78
2022/10/19 04:36:43;;;;;;;7.60;1.90;;;12.70;1.00;;;;;;6289790;22;20466;-82
2022/10/19 04:39:13;;;;;;;9.20;1.63;;;12.70;1.00;;;;;;6290288;22;20485;-77
2022/10/19 04:41:41;;;;;;;7.40;1.60;;;12.70;1.00;;;;;;6291561;22;20396;-78
2022/10/19 04:44:10;;;;;;;7.63;2.50;;;12.60;1.00;;;;;;6289979;22;20392;-79
2022/10/19 04:46:41;;;;;;;6.83;1.73;;;12.60;1.00;;;;;;6291325;22;20439;-76
2022/10/19 04:49:08;;;;;;;11.77;3.50;;;12.60;1.00;;;;;;6284633;22;20433;-78
2022/10/19 04:51:35;;;;;;;7.17;1.87;;;12.60;1.00;;;;;;6289358;22;21193;-77
2022/10/19 04:54:04;;;;;;;9.43;2.93;;;12.60;1.00;;;;;;6282745;22;20446;-78
2022/10/19 04:56:31;;;;;;;5.70;1.27;;;12.60;1.00;;;;;;6283817;22;20477;-76
2022/10/19 04:58:59;;;;;;;8.67;1.70;;;12.60;1.00;;;;;;6251052;22;21117;-78
2022/10/19 05:01:27;;;;;;;6.63;1.73;;;12.60;1.00;;;;;;6272667;22;20517;-76
2022/10/19 05:03:59;;;;;;;8.63;2.83;;;12.60;1.00;;;;;;6270763;22;20446;-79
2022/10/19 05:06:30;;;;;;;11.10;3.97;;;12.60;1.00;;;;;;6272011;22;20447;-79
2022/10/19 05:08:59;;;;;;;7.77;1.60;;;12.60;1.00;;;;;;6270029;22;20407;-79
2022/10/19 05:11:36;;;;;;;8.60;2.27;;;12.60;1.00;;;;;;6270972;22;21080;-78
2022/10/19 05:14:03;;;;;;;9.50;2.30;;;12.60;1.00;;;;;;6284217;22;20510;-78
2022/10/19 05:16:30;;;;;;;6.93;1.60;;;12.60;1.00;;;;;;6283670;22;20762;-77
2022/10/19 05:18:58;;;;;;;7.00;1.80;;;12.60;1.00;;;;;;6283226;22;20421;-77
2022/10/19 05:21:31;;;;;;;10.33;1.70;;;12.60;1.00;;;;;;6281914;22;20825;-76
2022/10/19 05:24:01;;;;;;;6.77;1.50;;;12.60;1.00;;;;;;6284590;22;20423;-77
2022/10/19 05:26:31;;;;;;;8.90;1.37;;;12.50;1.00;;;;;;6283893;22;20490;-78
2022/10/19 05:29:00;;;;;;;8.13;2.30;;;12.40;1.00;;;;;;6281935;22;20453;-77
2022/10/19 05:31:29;;;;;;;10.53;2.60;;;12.30;1.00;;;;;;6284273;22;20395;-77
2022/10/19 05:33:56;;;;;;;7.23;1.47;;;12.20;1.00;;;;;;6283914;22;20917;-78
2022/10/19 05:36:27;;;;;;;8.33;1.80;;;12.10;1.00;;;;;;6284620;22;20489;-78
2022/10/19 05:38:56;;;;;;;9.97;2.40;;;12.10;1.00;;;;;;6281681;22;20455;-78
2022/10/19 05:41:24;;;;;;;12.30;2.13;;;12.10;1.00;;;;;;6282829;22;20413;-78
2022/10/19 05:44:03;;;;;;;10.07;3.37;;;12.10;1.00;;;;;;6255540;22;20419;-78
2022/10/19 05:46:37;;;;;;;9.53;2.63;;;12.10;1.00;;;;;;6282513;22;20395;-78
2022/10/19 05:49:07;;;;;;;10.33;1.80;;;12.10;1.00;;;;;;6283635;22;20434;-79
2022/10/19 05:51:33;;;;;;;8.30;2.20;;;12.00;1.00;;;;;;6284211;22;20894;-78
2022/10/19 05:54:00;;;;;;;9.70;2.40;;;11.90;1.00;;;;;;6282319;22;20465;-80
2022/10/19 05:56:32;;;;;;;9.10;2.40;;;12.00;1.00;;;;;;6281376;22;20530;-79
2022/10/19 05:59:05;;;;;;;13.97;3.97;;;12.00;1.00;;;;;;6281535;22;20934;-78
2022/10/19 06:01:33;;;;;;;9.30;2.90;;;12.10;1.00;;;;;;6283578;22;20423;-77
2022/10/19 06:04:01;;;;;;;8.53;2.30;;;12.20;1.00;;;;;;6282010;22;20435;-76
2022/10/19 06:06:28;;;;;;;12.23;2.70;;;12.20;1.00;;;;;;6281642;22;20522;-77
2022/10/19 06:08:57;;;;;;;8.93;2.20;;;12.20;1.00;;;;;;6282497;22;20439;-78
2022/10/19 06:11:29;;;;;;;10.77;2.23;;;12.30;1.00;;;;;;6283429;22;20424;-79
2022/10/19 06:14:28;;;;;;;12.40;2.90;;;12.30;1.00;;;;;;6280144;22;20423;-82
2022/10/19 06:16:55;;;;;;;8.87;1.93;;;12.30;1.00;;;;;;6280274;22;20542;-77
2022/10/19 06:19:24;;;;;;;9.17;2.13;;;12.40;1.00;;;;;;6282742;22;20427;-79
2022/10/19 06:21:51;;;;;;;7.53;1.90;;;12.40;1.00;;;;;;6252324;22;21008;-80
2022/10/19 06:24:18;;;;;;;10.70;3.17;;;12.40;1.00;;;;;;6273712;22;20502;-81
2022/10/19 06:26:45;;;;;;;14.07;2.10;;;12.40;1.00;;;;;;6283043;22;20895;-80
2022/10/19 06:29:12;;;;;;;15.40;2.60;;;12.50;1.00;;;;;;6285312;22;20426;-82
2022/10/19 06:31:40;;;;;;;6.93;1.73;;;12.50;1.00;;;;;;6284501;22;20546;-81
2022/10/19 06:34:09;;;;;;;10.23;2.20;;;12.50;1.00;;;;;;6282328;22;20445;-81
2022/10/19 06:36:36;;;;;;;9.77;2.60;;;12.60;1.00;;;;;;6280735;22;20481;-80
2022/10/19 06:39:04;;;;;;;8.83;2.07;;;12.60;1.00;;;;;;6283747;22;20437;-80
2022/10/19 06:41:33;;;;;;;7.07;2.10;;;12.70;1.00;;;;;;6284385;22;20427;-82
2022/10/19 06:44:00;;;;;;;10.40;4.30;;;12.70;1.00;;;;;;6283178;22;20473;-82
2022/10/19 06:46:29;;;;;;;7.70;2.20;;;12.80;1.00;;;;;;6284453;22;20427;-81
2022/10/19 06:49:00;;;;;;;9.63;2.33;;;12.80;1.00;;;;;;6285819;22;20438;-81
2022/10/19 06:51:29;;;;;;;10.00;2.20;;;12.90;1.00;;;;;;6285509;22;20439;-81
2022/10/19 06:53:56;;;;;;;9.30;2.17;;;12.90;1.00;;;;;;6285594;22;20415;-80
2022/10/19 06:56:32;;;;;;;12.10;2.00;;;12.90;1.00;;;;;;6286618;22;20425;-80
2022/10/19 06:58:59;;;;;;;8.60;2.10;;;12.90;1.00;;;;;;6244196;22;20482;-83
2022/10/19 07:01:28;;;;;;;10.10;2.27;;;12.90;1.00;;;;;;6291489;22;20398;-84
2022/10/19 07:04:01;;;;;;;8.03;2.60;;;12.90;1.00;;;;;;6290620;22;20462;-83
2022/10/19 07:06:30;;;;;;;9.07;2.00;;;13.00;1.00;;;;;;6289781;22;20514;-83
2022/10/19 07:09:01;;;;;;;10.50;2.07;;;13.00;1.00;;;;;;6287171;22;21014;-84
2022/10/19 07:14:14;;;;;;;7.77;1.90;;;13.20;1.00;;;;;;6289056;22;20429;-84
2022/10/19 07:16:42;;;;;;;14.10;2.77;;;13.20;1.00;;;;;;6290730;22;20391;-83
2022/10/19 07:19:15;;;;;;;8.70;1.87;;;13.40;1.00;;;;;;6272923;22;20436;-83
2022/10/19 07:21:42;;;;;;;7.93;1.80;;;13.40;1.00;;;;;;6270937;22;20469;-83
2022/10/19 07:24:11;;;;;;;13.70;2.10;;;13.50;1.00;;;;;;6289204;22;20458;-82
2022/10/19 07:26:38;;;;;;;6.50;1.57;;;13.60;1.00;;;;;;6267930;22;20391;-84
2022/10/19 07:29:05;;;;;;;7.50;1.63;;;13.50;1.00;;;;;;6290123;22;21758;-85
2022/10/19 07:31:34;;;;;;;8.50;2.40;;;13.60;1.00;;;;;;6264777;22;20415;-84
2022/10/19 07:34:03;;;;;;;9.00;1.83;;;13.70;1.00;;;;;;6288498;22;20977;-85
2022/10/19 07:36:35;;;;;;;8.57;2.20;;;13.70;1.00;;;;;;6290359;22;20416;-84
2022/10/19 07:39:05;;;;;;;8.93;1.80;;;13.90;1.00;;;;;;6248989;22;20907;-84
2022/10/19 07:41:34;;;;;;;7.83;2.67;;;14.10;1.00;;;;;;6292190;22;20816;-85
2022/10/19 07:44:03;;;;;;;8.83;2.30;;;14.10;1.00;;;;;;6261631;22;21200;-84
2022/10/19 07:46:34;;;;;;;8.70;1.90;;;14.20;1.00;;;;;;6290995;22;20428;-84
2022/10/19 07:49:05;;;;;;;9.47;3.50;;;14.10;1.00;;;;;;6291581;22;20430;-83
2022/10/19 07:51:33;;;;;;;8.63;2.20;;;14.10;1.00;;;;;;6256252;22;20388;-85
2022/10/19 07:54:00;;;;;;;12.97;2.73;;;14.10;1.00;;;;;;6275369;22;20451;-84
2022/10/19 07:56:28;;;;;;;11.20;3.50;;;14.20;1.00;;;;;;6290854;22;20386;-85
2022/10/19 07:58:56;;;;;;;8.80;1.73;;;14.30;1.00;;;;;;6274228;22;20215;-85
2022/10/19 08:01:25;;;;;;;8.10;1.87;;;14.30;1.00;;;;;;6264050;22;20420;-84
2022/10/19 08:03:55;;;;;;;9.83;2.27;;;14.40;1.00;;;;;;6289435;22;20419;-83
2022/10/19 08:06:23;;;;;;;10.63;2.70;;;14.50;1.00;;;;;;6296628;22;20423;-83
2022/10/19 08:08:53;;;;;;;11.83;2.80;;;14.50;1.00;;;;;;6292667;22;20427;-85
2022/10/19 08:11:22;;;;;;;8.57;1.63;;;14.60;1.00;;;;;;6296861;22;20458;-84
2022/10/19 08:13:52;;;;;;;8.80;1.93;;;14.50;1.00;;;;;;6266792;22;20431;-84
2022/10/19 08:16:32;;;;;;;9.37;2.37;;;14.50;1.00;;;;;;6283890;22;20443;-86
2022/10/19 08:19:03;;;;;;;10.87;2.90;;;14.40;1.00;;;;;;6291556;22;20398;-85
2022/10/19 08:21:30;;;;;;;8.87;2.40;;;14.40;1.00;;;;;;6297655;22;20454;-84
2022/10/19 08:24:02;;;;;;;8.97;1.93;;;14.60;1.00;;;;;;6295857;22;20395;-85
2022/10/19 08:26:34;;;;;;;7.30;1.73;;;14.70;1.00;;;;;;6295908;22;20384;-84
2022/10/19 08:29:53;;;;;;;9.63;1.77;;;14.70;1.00;;;;;;6219494;22;20398;-84
2022/10/19 08:32:22;;;;;;;7.77;1.50;;;14.70;1.00;;;;;;6145048;23;20509;-85
2022/10/19 08:35:53;;;;;;;;;;;;;;;;;;;;;
2022/10/19 08:38:54;;;;;;;;;;;;;;;;;;;;;
2022/10/19 08:41:53;;;;;;;14.40;3.30;;;15.10;1.00;;;;;;6229812;22;50734;-81
2022/10/19 08:45:04;;;;;;;10.63;5.10;;;14.90;1.00;;;;;;6164151;23;20422;-82
2022/10/19 08:48:01;;;;;;;9.00;3.20;;;14.90;1.00;;;;;;6193968;23;20548;-82
2022/10/19 08:51:04;;;;;;;;;;;;;;;;;;;;;
2022/10/19 08:56:54;;;;;;;;;;;;;;;;;;;;;
2022/10/19 09:00:02;;;;;;;;;;;;;;;;;;;;;
2022/10/19 09:09:22;;;;;;;;;;;;;;;;;;;;;
2022/10/19 09:12:33;;;;;;;;;;;;;;;;;;;;;
2022/10/19 09:15:44;;;;;;;7.33;1.87;;;16.30;1.00;;;;;;6065629;23;42327;-82
2022/10/19 09:18:53;;;;;;;;;;;;;;;;;;;;;
2022/10/19 09:22:04;;;;;;;;;;;;;;;;;;;;;
2022/10/19 09:25:13;;;;;;;;;;;;;;;;;;;;;
2022/10/19 09:27:54;;;;;;;9.03;3.57;;;16.10;1.00;;;;;;6067954;23;51571;-81
2022/10/19 09:33:42;;;;;;;10.57;3.40;;;16.80;1.00;;;;;;6108817;23;20416;-82
2022/10/19 09:39:45;;;;;;;10.20;2.10;;;16.60;1.00;;;;;;6075463;23;20523;-82
2022/10/19 09:43:17;;;;;;;;;;;;;;;;;;;;;
2022/10/19 09:46:32;;;;;;;;;;;;;;;;;;;;;
2022/10/19 09:49:33;;;;;;;9.93;2.63;;;16.70;1.00;;;;;;6106277;22;40381;-84
2022/10/19 09:52:55;;;;;;;;;;;;;;;;;;;;;
2022/10/19 09:56:04;;;;;;;;;;;;;;;;;;;;;
2022/10/19 09:59:04;;;;;;;;;;;;;;;;;;;;;
2022/10/19 10:02:10;;;;;;;;;;;;;;;;;;;;;
2022/10/19 10:07:55;;;;;;;;;;;;;;;;;;;;;
2022/10/19 10:14:24;;;;;;;;;;;;;;;;;;;;;
2022/10/19 10:17:36;;;;;;;;;;;;;;;;;;;;;
2022/10/19 10:20:42;;;;;;;6.30;1.97;;;17.30;1.00;;;;;;6232538;22;43103;-81
2022/10/19 10:23:24;;;;;;;7.63;1.53;;;17.20;1.00;;;;;;6251904;22;20436;-82
2022/10/19 10:25:56;;;;;;;8.80;2.10;;;17.10;1.00;;;;;;6252675;22;20423;-82
2022/10/19 10:28:24;;;;;;;5.43;1.30;;;17.10;1.00;;;;;;6253965;22;20388;-82
2022/10/19 10:31:01;;;;;;;5.60;1.30;;;17.10;1.00;;;;;;6251036;22;20428;-81
2022/10/19 10:33:33;;;;;;;7.40;1.53;;;17.30;1.00;;;;;;6253616;22;20403;-81
2022/10/19 10:36:08;;;;;;;7.63;1.57;;;17.90;1.00;;;;;;6251329;22;20539;-81
2022/10/19 10:38:41;;;;;;;6.77;1.40;;;18.50;1.00;;;;;;6254287;22;20427;-81
2022/10/19 10:41:14;;;;;;;5.50;1.10;;;18.90;1.00;;;;;;6253037;22;20452;-80
2022/10/19 10:44:05;;;;;;;;;;;;;;;;;;;;;
2022/10/19 10:47:14;;;;;;;;;;;;;;;;;;;;;
2022/10/19 10:50:02;;;;;;;5.27;1.20;;;19.40;1.00;;;;;;6147576;23;50767;-82
2022/10/19 10:56:44;;;;;;;;;;;;;;;;;;;;;
2022/10/19 10:59:57;;;;;;;6.10;1.33;;;20.80;1.00;;;;;;6146458;23;51750;-80
2022/10/19 11:02:35;;;;;;;9.37;2.10;;;21.50;1.00;;;;;;6179699;22;20501;-82
2022/10/19 11:05:14;;;;;;;5.57;1.00;;;22.50;1.00;;;;;;6213476;22;20467;-81
2022/10/19 11:07:48;;;;;;;4.30;0.87;;;23.30;1.00;;;;;;6237839;22;20499;-81
2022/10/19 11:10:26;;;;;;;5.73;1.47;;;22.70;1.00;;;;;;6252510;22;20420;-82
2022/10/19 11:13:05;;;;;;;5.67;1.30;;;22.50;1.00;;;;;;6235416;22;20439;-81
2022/10/19 11:15:36;;;;;;;7.27;2.60;;;23.20;1.00;;;;;;6254630;22;20842;-83
2022/10/19 11:18:23;;;;;;;6.80;1.60;;;24.20;1.00;;;;;;6251229;22;20434;-82
2022/10/19 11:21:25;;;;;;;10.53;1.70;;;25.00;1.00;;;;;;6240105;22;21356;-83
2022/10/19 11:24:16;;;;;;;6.10;1.17;;;25.30;1.00;;;;;;6130458;23;20423;-82
2022/10/19 11:27:18;;;;;;;7.67;1.00;;;25.20;1.00;;;;;;6101811;23;20440;-82
2022/10/19 11:33:05;;;;;;;7.40;3.53;;;23.00;1.00;;;;;;6222421;22;20422;-82
2022/10/19 11:35:58;;;;;;;5.40;1.03;;;22.30;1.00;;;;;;6261882;22;20404;-81
2022/10/19 11:38:40;;;;;;;6.03;2.70;;;23.00;1.00;;;;;;6221718;22;20561;-82
2022/10/19 11:41:25;;;;;;;5.67;1.70;;;23.20;1.00;;;;;;6226308;22;20431;-83
2022/10/19 11:44:10;;;;;;;5.90;1.80;;;22.60;1.00;;;;;;6255774;22;20424;-82
2022/10/19 11:46:46;;;;;;;6.37;1.70;;;21.70;1.00;;;;;;6253860;22;20467;-84
2022/10/19 11:49:24;;;;;;;6.60;2.10;;;21.10;1.00;;;;;;6255466;22;20426;-82
2022/10/19 11:52:04;;;;;;;7.47;3.03;;;20.50;1.00;;;;;;6238648;22;20934;-82
2022/10/19 11:54:54;;;;;;;5.20;1.50;;;20.10;1.00;;;;;;6226883;22;20427;-82
2022/10/19 11:57:25;;;;;;;7.97;2.57;;;20.40;1.00;;;;;;6256834;22;20381;-81
2022/10/19 12:00:08;;;;;;;6.70;1.90;;;20.30;1.00;;;;;;6237284;22;20406;-83
2022/10/19 12:03:12;;;;;;;6.97;2.00;;;19.90;1.00;;;;;;6228554;22;20395;-81
2022/10/19 12:05:49;;;;;;;7.07;1.80;;;19.30;1.00;;;;;;6165812;23;20787;-81
2022/10/19 12:08:55;;;;;;;;;;;;;;;;;;;;;
2022/10/19 12:11:55;;;;;;;;;;;;;;;;;;;;;
2022/10/19 12:15:25;;;;;;;;;;;;;;;;;;;;;
2022/10/19 12:18:57;;;;;;;;;;;;;;;;;;;;;
2022/10/19 12:21:55;;;;;;;;;;;;;;;;;;;;;
2022/10/19 12:25:08;;;;;;;;;;;;;;;;;;;;;
2022/10/19 12:33:41;;;;;;;7.97;1.70;;;20.70;1.00;;;;;;6104050;23;20836;-82
2022/10/19 12:36:28;;;;;;;5.40;2.30;;;20.20;1.00;;;;;;6166393;23;20413;-84
2022/10/19 12:39:39;;;;;;;;;;;;;;;;;;;;;
2022/10/19 12:48:36;;;;;;;;;;;;;;;;;;;;;
2022/10/19 13:32:08;;;;;;;;;;;;;;;;;;;;;
2022/10/19 13:35:07;;;;;;;6.57;1.63;;;18.00;1.00;;;;;;6205686;22;50721;-83
2022/10/19 13:38:17;;;;;;;6.23;1.43;;;17.90;1.00;;;;;;6092938;23;20416;-83
2022/10/19 13:41:17;;;;;;;9.07;3.97;;;17.90;1.00;;;;;;6238899;22;20392;-83
2022/10/19 13:44:51;;;;;;;;;;;;;;;;;;;;;
2022/10/19 13:47:49;;;;;;;;;;;;;;;;;;;;;
2022/10/19 14:00:09;;;;;;;;;;;;;;;;;;;;;
2022/10/19 14:03:16;;;;;;;;;;;;;;;;;;;;;
2022/10/19 14:10:13;;;;;;;;;;;;;;;;;;;;;
2022/10/19 14:13:16;;;;;;;;;;;;;;;;;;;;;
2022/10/19 14:16:24;;;;;;;5.80;1.40;;;16.30;1.00;;;;;;5966850;23;50828;-83
2022/10/19 14:18:57;;;;;;;6.97;1.40;;;16.20;1.00;;;;;;6058940;23;20579;-84
2022/10/19 14:21:35;;;;;;;7.50;1.70;;;16.20;1.00;;;;;;6205463;22;20923;-81
2022/10/19 14:24:28;;;;;;;6.40;1.37;;;16.10;1.00;;;;;;6216598;22;20459;-81
2022/10/19 14:27:26;;;;;;;4.90;1.30;;;16.00;1.00;;;;;;6213523;22;20381;-83
2022/10/19 14:53:19;;;;;;;9.00;3.40;;;16.50;1.00;;;;;;5992297;23;21255;-83
2022/10/19 14:55:59;;;;;;;9.90;2.07;;;16.50;1.00;;;;;;6078910;23;20425;-82
2022/10/19 14:58:55;;;;;;;8.07;1.57;;;16.50;1.00;;;;;;6095335;23;20434;-84
2022/10/19 15:01:58;;;;;;;;;;;;;;;;;;;;;
2022/10/19 15:04:35;;;;;;;7.00;1.83;;;16.50;1.00;;;;;;6134739;23;51966;-82
2022/10/19 15:07:49;;;;;;;6.70;1.60;;;16.50;1.00;;;;;;6176426;22;20827;-79
2022/10/19 15:10:38;;;;;;;6.87;2.20;;;16.40;1.00;;;;;;6247208;22;20497;-83
2022/10/19 15:13:50;;;;;;;6.97;2.50;;;16.30;1.00;;;;;;6214523;22;20727;-82
2022/10/19 15:20:28;;;;;;;8.33;2.07;;;16.00;1.00;;;;;;5975454;23;20406;-82
2022/10/19 15:23:06;;;;;;;8.57;2.33;;;15.70;1.00;;;;;;6117349;22;20408;-82
2022/10/19 15:32:37;;;;;;;;;;;;;;;;;;;;;
2022/10/19 15:38:49;;;;;;;10.30;2.20;;;14.90;1.00;;;;;;6099035;23;20421;-83
2022/10/19 15:41:48;;;;;;;;;;;;;;;;;;;;;
2022/10/19 15:44:39;;;;;;;7.93;2.70;;;14.60;1.00;;;;;;6132112;23;50625;-81
2022/10/19 15:47:19;;;;;;;9.13;3.17;;;14.50;1.00;;;;;;6183113;23;20418;-82
2022/10/19 15:50:05;;;;;;;8.13;2.67;;;14.30;1.00;;;;;;6233457;22;20387;-81
2022/10/19 15:52:39;;;;;;;8.67;2.50;;;14.20;1.00;;;;;;6241863;22;20494;-80
2022/10/19 15:55:06;;;;;;;10.10;2.90;;;14.10;1.00;;;;;;6230731;22;20538;-80
2022/10/19 15:57:37;;;;;;;7.33;2.20;;;14.00;1.00;;;;;;6258632;22;20475;-84
2022/10/19 16:00:11;;;;;;;7.80;2.87;;;13.90;1.00;;;;;;6247295;22;20416;-81
2022/10/19 16:02:38;;;;;;;8.60;3.70;;;13.80;1.00;;;;;;6261682;22;20448;-82
2022/10/19 16:05:10;;;;;;;11.27;3.63;;;13.70;1.00;;;;;;6244278;22;20370;-81
2022/10/19 16:08:06;;;;;;;9.07;3.83;;;13.60;1.00;;;;;;6250387;22;20896;-80
2022/10/19 16:10:52;;;;;;;8.00;3.20;;;13.60;1.00;;;;;;6177327;23;20444;-82
2022/10/19 16:13:25;;;;;;;12.33;8.57;;;13.50;1.00;;;;;;6174491;22;20392;-81
2022/10/19 16:19:39;;;;;;;12.50;4.43;;;13.30;1.00;;;;;;6046778;23;20421;-82
2022/10/19 16:22:18;;;;;;;9.50;3.60;;;13.20;1.00;;;;;;6001670;23;20416;-81
2022/10/19 16:25:09;;;;;;;14.00;4.57;;;13.20;1.00;;;;;;6064295;23;20504;-80
2022/10/19 16:27:57;;;;;;;9.10;4.03;;;13.10;1.00;;;;;;6221495;22;20431;-82
2022/10/19 16:30:41;;;;;;;;;;;;;;;;;;;;;
2022/10/19 16:36:38;;;;;;;12.60;3.80;;;12.90;1.00;;;;;;6071568;23;20416;-81
2022/10/19 16:39:15;;;;;;;12.37;4.87;;;12.80;1.00;;;;;;6084371;23;21553;-82
2022/10/19 16:41:56;;;;;;;10.10;5.00;;;12.70;1.00;;;;;;6126946;23;20408;-82
2022/10/19 16:57:47;;;;;;;10.97;5.23;;;12.30;1.00;;;;;;5991680;23;20452;-80
2022/10/19 17:00:48;;;;;;;;;;;;;;;;;;;;;
2022/10/19 17:03:22;;;;;;;13.87;4.10;;;12.10;1.00;;;;;;6201144;22;49710;-79
2022/10/19 17:06:24;;;;;;;;;;;;;;;;;;;;;
2022/10/19 17:12:24;;;;;;;11.67;4.50;;;12.00;1.00;;;;;;6030265;23;20991;-80
2022/10/19 17:21:43;;;;;;;;;;;;;;;;;;;;;
2022/10/19 17:24:36;;;;;;;12.60;5.03;;;11.70;1.00;;;;;;6002657;23;39501;-83
2022/10/19 17:27:04;;;;;;;13.10;4.90;;;11.60;1.00;;;;;;6090453;23;20447;-81
2022/10/19 17:32:37;;;;;;;8.93;4.10;;;11.50;1.00;;;;;;6045004;23;20426;-82
2022/10/19 17:35:06;;;;;;;11.60;4.70;;;11.40;1.00;;;;;;6096639;23;20434;-80
2022/10/19 17:37:33;;;;;;;11.17;6.33;;;11.40;1.00;;;;;;6238397;22;20506;-81
2022/10/19 17:40:05;;;;;;;14.10;5.50;;;11.40;1.00;;;;;;6244841;22;20417;-84
2022/10/19 17:43:16;;;;;;;;;;;;;;;;;;;;;
2022/10/19 17:46:24;;;;;;;11.80;5.30;;;11.30;1.00;;;;;;6131279;23;47869;-85